Time;durP1;ratioP1;P1;durP2;ratioP2;P2;SDS_P1;SDS_P2;PMS_P1;PMS_P2;Temp;Humidity;BMP_temperature;BMP_pressure;BME280_temperature;BME280_humidity;BME280_pressure;Samples;Min_cycle;Max_cycle;Signal;HPM_P1;HPM_P2
2022/09/23 00:02:27;;;;;;;3.50;1.13;;;;;;;9.53;100.00;101155.53;5168059;28;20030;-73
2022/09/23 00:04:57;;;;;;;4.38;1.25;;;;;;;9.51;100.00;101156.44;5170393;28;20160;-73
2022/09/23 00:07:28;;;;;;;2.58;1.40;;;;;;;9.58;100.00;101158.88;5167392;28;20547;-73
2022/09/23 00:09:58;;;;;;;2.70;1.10;;;;;;;9.74;99.40;101160.25;5169613;28;20030;-73
2022/09/23 00:12:28;;;;;;;3.10;1.33;;;;;;;9.72;99.10;101150.75;5167370;28;20108;-73
2022/09/23 00:14:59;;;;;;;1.90;1.08;;;;;;;9.59;100.00;101141.47;5170952;28;20041;-73
2022/09/23 00:17:30;;;;;;;3.05;1.20;;;;;;;9.55;100.00;101142.44;5171329;28;20425;-73
2022/09/23 00:20:00;;;;;;;2.40;1.10;;;;;;;9.60;100.00;101145.78;5174097;28;20113;-73
2022/09/23 00:22:32;;;;;;;3.78;1.42;;;;;;;9.56;100.00;101141.53;5177208;28;20124;-73
2022/09/23 00:25:07;;;;;;;6.78;3.17;;;;;;;9.40;100.00;101137.53;5170870;28;20034;-73
2022/09/23 00:27:38;;;;;;;7.07;2.00;;;;;;;9.49;100.00;101142.56;5172485;28;20029;-72
2022/09/23 00:30:09;;;;;;;4.45;1.65;;;;;;;9.35;100.00;101134.19;5174920;28;20516;-72
2022/09/23 00:32:39;;;;;;;3.38;1.40;;;;;;;9.35;100.00;101139.41;5171995;28;20032;-73
2022/09/23 00:35:09;;;;;;;2.85;1.30;;;;;;;9.35;100.00;101139.41;5174029;28;20565;-73
2022/09/23 00:37:40;;;;;;;2.70;1.20;;;;;;;9.29;100.00;101131.72;5164413;28;20037;-73
2022/09/23 00:40:11;;;;;;;3.63;1.10;;;;;;;9.25;100.00;101135.25;5169247;28;20420;-73
2022/09/23 00:42:47;;;;;;;3.30;1.42;;;;;;;9.19;100.00;101132.78;5171768;28;20033;-73
2022/09/23 00:45:18;;;;;;;;;;;;;;;9.20;100.00;101126.69;5160197;22;1070836;-73
2022/09/23 00:48:01;;;;;;;1.75;1.05;;;;;;;9.18;100.00;101123.25;5180996;28;19923;-75
2022/09/23 00:50:42;;;;;;;2.53;1.35;;;;;;;9.17;100.00;101124.16;5183481;28;20026;-76
2022/09/23 00:53:15;;;;;;;2.35;1.20;;;;;;;9.07;100.00;101122.63;5166398;28;20038;-75
2022/09/23 00:55:53;;;;;;;3.88;1.70;;;;;;;8.94;100.00;101126.38;5182871;28;20033;-76
2022/09/23 00:58:30;;;;;;;3.38;1.38;;;;;;;8.92;100.00;101122.09;5172199;28;20122;-76
2022/09/23 01:01:02;;;;;;;2.58;1.20;;;;;;;8.85;100.00;101120.47;5171641;28;20415;-76
2022/09/23 01:03:33;;;;;;;9.93;1.50;;;;;;;8.84;100.00;101111.81;5172067;28;20038;-76
2022/09/23 01:06:04;;;;;;;3.85;1.30;;;;;;;8.88;100.00;101113.44;5163654;28;20032;-76
2022/09/23 01:08:35;;;;;;;2.83;1.30;;;;;;;8.94;100.00;101109.88;5171870;28;20132;-76
2022/09/23 01:12:03;;;;;;;1.83;1.17;;;;;;;8.91;100.00;101105.56;5177811;28;20065;-77
2022/09/23 01:14:58;;;;;;;4.28;1.40;;;;;;;8.92;100.00;101107.28;5089613;29;20126;-76
2022/09/23 01:17:34;;;;;;;4.05;1.38;;;;;;;8.88;100.00;101100.41;5167317;28;20158;-76
2022/09/23 01:20:27;;;;;;;3.65;1.30;;;;;;;8.87;100.00;101098.72;5163681;28;20027;-76
2022/09/23 01:23:03;;;;;;;2.05;1.30;;;;;;;8.90;100.00;101087.38;5171498;28;20026;-76
2022/09/23 01:26:10;;;;;;;2.55;1.30;;;;;;;8.88;100.00;101090.00;5170606;28;20056;-75
2022/09/23 01:28:51;;;;;;;3.42;1.50;;;;;;;8.79;100.00;101095.41;5161714;28;20026;-75
2022/09/23 01:31:31;;;;;;;1.85;1.20;;;;;;;8.85;100.00;101090.06;5168225;28;20058;-75
2022/09/23 01:34:23;;;;;;;4.40;1.50;;;;;;;8.95;100.00;101090.72;5175856;28;20080;-76
2022/09/23 01:37:00;;;;;;;2.50;1.40;;;;;;;8.95;100.00;101081.19;5147143;28;20044;-75
2022/09/23 01:39:35;;;;;;;3.45;1.42;;;;;;;8.93;100.00;101082.94;5175534;28;20333;-76
2022/09/23 01:42:18;;;;;;;3.47;1.35;;;;;;;8.89;100.00;101080.44;5183151;28;20025;-76
2022/09/23 01:44:55;;;;;;;2.17;1.13;;;;;;;8.81;100.00;101078.00;5172197;28;20022;-76
2022/09/23 01:47:34;;;;;;;3.88;1.35;;;;;;;8.66;100.00;101078.28;5171290;28;20471;-77
2022/09/23 01:53:10;;;;;;;2.42;1.40;;;;;;;8.57;100.00;101075.84;5163193;28;20033;-76
2022/09/23 01:55:48;;;;;;;3.00;1.30;;;;;;;8.53;100.00;101066.38;5176848;28;20048;-75
2022/09/23 01:58:29;;;;;;;2.72;1.40;;;;;;;8.52;100.00;101062.06;5167413;28;20030;-76
2022/09/23 02:01:03;;;;;;;3.33;1.40;;;;;;;8.49;100.00;101067.34;5175125;28;20075;-75
2022/09/23 02:03:43;;;;;;;3.08;1.48;;;;;;;8.43;100.00;101062.28;5171604;28;20588;-76
2022/09/23 02:06:21;;;;;;;1.80;1.20;;;;;;;8.48;100.00;101063.03;5180891;28;20083;-76
2022/09/23 02:08:59;;;;;;;6.30;1.38;;;;;;;8.46;100.00;101061.31;5173311;28;20041;-75
2022/09/23 02:11:35;;;;;;;3.53;1.42;;;;;;;8.47;100.00;101061.31;5174814;28;20570;-76
2022/09/23 02:14:14;;;;;;;3.05;1.40;;;;;;;8.44;100.00;101060.50;5161838;28;20030;-76
2022/09/23 02:16:51;;;;;;;1.80;1.20;;;;;;;8.52;100.00;101054.25;5175009;28;20026;-76
2022/09/23 02:19:29;;;;;;;3.33;1.60;;;;;;;8.49;100.00;101058.66;5168703;28;20057;-75
2022/09/23 02:22:07;;;;;;;3.28;1.38;;;;;;;8.43;100.00;101049.25;5179608;28;20026;-76
2022/09/23 02:24:38;;;;;;;3.22;1.45;;;;;;;8.38;100.00;101056.25;5176837;28;20026;-76
2022/09/23 02:27:09;;;;;;;4.15;1.50;;;;;;;8.32;100.00;101055.53;5170096;28;20037;-75
2022/09/23 02:30:13;;;;;;;3.28;1.40;;;;;;;8.23;100.00;101053.94;5169407;28;20022;-76
2022/09/23 02:33:06;;;;;;;1.75;1.20;;;;;;;8.24;100.00;101053.06;5171682;28;20511;-75
2022/09/23 02:35:51;;;;;;;3.25;1.35;;;;;;;8.28;100.00;101049.53;5162630;28;20289;-76
2022/09/23 02:38:33;;;;;;;4.95;1.52;;;;;;;8.31;100.00;101046.88;5176871;28;20026;-76
2022/09/23 02:41:09;;;;;;;2.85;1.38;;;;;;;8.29;100.00;101045.16;5162925;28;20042;-76
2022/09/23 02:43:49;;;;;;;2.50;1.40;;;;;;;8.28;100.00;101046.06;5173768;28;20021;-76
2022/09/23 02:46:20;;;;;;;2.50;1.40;;;;;;;8.22;100.00;101047.03;5162470;28;20041;-76
2022/09/23 02:49:10;;;;;;;3.90;1.35;;;;;;;8.20;100.00;101043.59;5168966;28;20421;-76
2022/09/23 02:51:40;;;;;;;2.55;1.40;;;;;;;8.15;100.00;101042.78;5168780;28;20026;-76
2022/09/23 02:54:16;;;;;;;3.20;1.40;;;;;;;8.03;100.00;101044.78;5162429;28;20550;-75
2022/09/23 02:56:49;;;;;;;;;;;;;;;8.04;100.00;101034.31;5164829;28;20026;-76
2022/09/23 02:59:21;;;;;;;2.38;1.35;;;;;;;8.05;100.00;101037.78;5165925;28;20630;-76
2022/09/23 03:02:04;;;;;;;2.88;1.27;;;;;;;8.04;100.00;101039.50;5168268;28;20392;-76
2022/09/23 03:04:46;;;;;;;2.45;1.40;;;;;;;8.13;100.00;101034.16;5169433;28;20037;-76
2022/09/23 03:07:22;;;;;;;3.88;1.60;;;;;;;8.12;100.00;101027.25;5165378;28;20104;-76
2022/09/23 03:10:03;;;;;;;2.45;1.40;;;;;;;8.15;100.00;101028.91;5167082;28;20165;-76
2022/09/23 03:12:51;;;;;;;4.13;1.42;;;;;;;8.10;100.00;101023.81;5179912;28;20041;-78
2022/09/23 03:15:37;;;;;;;2.30;1.40;;;;;;;8.04;100.00;101026.50;5170078;28;20041;-77
2022/09/23 03:18:35;;;;;;;3.60;1.52;;;;;;;8.02;100.00;101020.47;5161370;28;20030;-76
2022/09/23 03:21:12;;;;;;;2.72;1.52;;;;;;;7.94;100.00;101022.38;5157087;28;20473;-76
2022/09/23 03:23:45;;;;;;;5.45;1.10;;;;;;;7.95;100.00;101018.00;5174455;28;20034;-76
2022/09/23 03:26:21;;;;;;;2.83;1.60;;;;;;;7.97;100.00;101016.22;5164996;28;20266;-76
2022/09/23 03:28:52;;;;;;;3.58;1.67;;;;;;;7.83;100.00;101020.81;5165504;28;20037;-76
2022/09/23 03:31:22;;;;;;;4.13;1.55;;;;;;;7.81;100.00;101023.47;5174001;28;20099;-76
2022/09/23 03:33:57;;;;;;;2.65;1.60;;;;;;;7.81;100.00;101005.25;5173887;28;20025;-76
2022/09/23 03:36:50;;;;;;;5.88;1.67;;;;;;;7.82;100.00;101012.16;5177472;28;20038;-74
2022/09/23 03:39:30;;;;;;;3.75;1.80;;;;;;;7.86;100.00;101003.41;5170322;28;20137;-75
2022/09/23 03:42:07;;;;;;;4.72;1.60;;;;;;;7.76;100.00;100996.66;5177956;28;20040;-76
2022/09/23 03:44:42;;;;;;;3.25;1.55;;;;;;;7.65;100.00;101009.00;5162703;28;20532;-76
2022/09/23 03:47:14;;;;;;;3.53;1.90;;;;;;;7.54;100.00;101004.84;5164162;28;20543;-75
2022/09/23 03:49:47;;;;;;;4.35;1.70;;;;;;;7.54;100.00;100992.69;5160938;28;20040;-76
2022/09/23 03:52:19;;;;;;;3.67;1.55;;;;;;;7.55;100.00;100994.41;5161147;28;20026;-75
2022/09/23 03:54:52;;;;;;;3.78;2.00;;;;;;;7.56;100.00;100992.69;5163789;28;20026;-76
2022/09/23 03:57:23;;;;;;;5.28;1.88;;;;;;;7.54;100.00;100994.47;5179742;28;21179;-76
2022/09/23 03:59:53;;;;;;;7.68;1.80;;;;;;;7.61;100.00;100993.47;5170335;28;20457;-76
2022/09/23 04:02:25;;;;;;;4.80;1.70;;;;;;;7.67;100.00;100983.81;5166298;28;20391;-76
2022/09/23 04:04:56;;;;;;;4.13;1.73;;;;;;;7.68;100.00;100988.13;5173037;28;20026;-75
2022/09/23 04:07:26;;;;;;;3.53;1.58;;;;;;;7.61;100.00;100990.84;5167650;28;20030;-76
2022/09/23 04:09:57;;;;;;;2.83;1.80;;;;;;;7.80;100.00;100985.31;5168953;28;20042;-76
2022/09/23 04:12:27;;;;;;;3.90;1.42;;;;;;;7.89;100.00;100977.34;5167821;28;20221;-75
2022/09/23 04:14:57;;;;;;;2.92;1.70;;;;;;;7.90;100.00;100978.19;5165536;28;20030;-76
2022/09/23 04:17:28;;;;;;;2.83;1.55;;;;;;;7.96;100.00;100973.75;5162099;28;20037;-76
2022/09/23 04:19:58;;;;;;;3.45;1.70;;;;;;;7.84;100.00;100973.97;5162725;28;20113;-76
2022/09/23 04:22:28;;;;;;;3.50;1.77;;;;;;;7.90;100.00;100976.44;5169475;28;20034;-76
2022/09/23 04:24:59;;;;;;;3.30;1.83;;;;;;;7.80;100.00;100966.22;5165640;28;20030;-76
2022/09/23 04:27:29;;;;;;;4.00;1.70;;;;;;;7.79;100.00;100960.19;5171715;28;20038;-75
2022/09/23 04:29:59;;;;;;;2.50;1.63;;;;;;;7.69;100.00;100974.22;5170970;28;20030;-76
2022/09/23 04:32:30;;;;;;;4.18;2.20;;;;;;;7.71;100.00;100969.84;5177879;28;20042;-74
2022/09/23 04:35:00;;;;;;;2.90;1.90;;;;;;;7.49;100.00;100970.28;5164465;28;20418;-76
2022/09/23 04:37:31;;;;;;;5.60;1.92;;;;;;;7.47;100.00;100969.41;5159553;28;20041;-76
2022/09/23 04:40:01;;;;;;;3.28;1.67;;;;;;;7.38;100.00;100961.78;5163466;28;20033;-75
2022/09/23 04:42:32;;;;;;;4.72;2.10;;;;;;;7.30;100.00;100964.50;5173643;28;20528;-75
2022/09/23 04:45:04;;;;;;;4.18;1.90;;;;;;;7.21;100.00;100962.94;5168484;28;20030;-76
2022/09/23 04:47:34;;;;;;;2.60;1.80;;;;;;;7.28;100.00;100964.56;5163965;28;20053;-76
2022/09/23 04:50:05;;;;;;;3.67;1.83;;;;;;;7.17;100.00;100964.75;5168165;28;20030;-77
2022/09/23 04:52:35;;;;;;;3.33;1.90;;;;;;;7.14;100.00;100953.53;5168142;28;20030;-76
2022/09/23 04:55:07;;;;;;;3.95;1.83;;;;;;;7.15;100.00;100957.84;5171515;28;20273;-76
2022/09/23 04:57:37;;;;;;;2.83;1.55;;;;;;;7.13;100.00;100962.22;5163784;28;20022;-76
2022/09/23 05:00:08;;;;;;;3.03;1.90;;;;;;;7.21;100.00;100962.94;5169271;28;20496;-76
2022/09/23 05:02:44;;;;;;;3.97;1.67;;;;;;;7.31;100.00;100961.03;5172906;28;20099;-73
2022/09/23 05:05:19;;;;;;;3.67;1.90;;;;;;;7.30;100.00;100961.03;5160327;28;20569;-76
2022/09/23 05:07:50;;;;;;;;;;;;;;;7.26;100.00;100963.75;5170675;28;20361;-76
2022/09/23 05:10:20;;;;;;;3.38;1.90;;;;;;;7.25;100.00;100964.63;5169207;28;19925;-75
2022/09/23 05:12:51;;;;;;;3.67;1.77;;;;;;;7.33;100.00;100959.25;5169986;28;20520;-77
2022/09/23 05:15:21;;;;;;;4.05;1.90;;;;;;;7.40;100.00;100960.91;5165347;28;20109;-76
2022/09/23 05:17:51;;;;;;;3.90;1.95;;;;;;;7.51;100.00;100961.56;5162261;28;20056;-77
2022/09/23 05:20:22;;;;;;;2.72;1.50;;;;;;;7.59;100.00;100962.28;5160466;28;20550;-77
2022/09/23 05:22:54;;;;;;;3.92;2.05;;;;;;;7.59;100.00;100962.28;5166056;28;20094;-77
2022/09/23 05:25:25;;;;;;;3.05;1.88;;;;;;;7.55;100.00;100955.41;5169347;28;20558;-77
2022/09/23 05:27:55;;;;;;;4.53;1.98;;;;;;;7.66;100.00;100953.47;5169204;28;20068;-78
2022/09/23 05:30:25;;;;;;;4.30;1.73;;;;;;;7.76;100.00;100954.19;5169451;28;20132;-76
2022/09/23 05:32:56;;;;;;;5.07;1.98;;;;;;;7.68;100.00;100959.50;5171038;28;20022;-77
2022/09/23 05:35:26;;;;;;;4.40;1.85;;;;;;;7.78;100.00;100953.28;5173223;28;20022;-77
2022/09/23 05:37:56;;;;;;;4.28;1.92;;;;;;;7.69;100.00;100958.63;5168850;28;20054;-77
2022/09/23 05:40:27;;;;;;;3.78;2.00;;;;;;;7.73;100.00;100946.44;5164910;28;20420;-77
2022/09/23 05:42:57;;;;;;;4.75;2.13;;;;;;;7.82;100.00;100954.94;5163552;28;20057;-77
2022/09/23 05:45:28;;;;;;;2.95;1.80;;;;;;;7.87;100.00;100952.25;5167498;28;20084;-77
2022/09/23 05:47:58;;;;;;;3.00;2.00;;;;;;;7.92;100.00;100953.00;5166270;28;20030;-78
2022/09/23 05:50:29;;;;;;;3.78;1.85;;;;;;;8.00;100.00;100949.38;5162896;28;20041;-77
2022/09/23 05:52:59;;;;;;;2.58;1.80;;;;;;;8.02;100.00;100954.56;5169054;28;20031;-77
2022/09/23 05:55:29;;;;;;;4.43;1.90;;;;;;;8.27;100.00;100950.59;5172416;28;20065;-76
2022/09/23 05:58:00;;;;;;;3.05;1.85;;;;;;;8.36;100.00;100942.63;5168550;28;20234;-77
2022/09/23 06:00:30;;;;;;;4.28;1.80;;;;;;;8.40;100.00;100944.28;5172847;28;20259;-76
2022/09/23 06:03:00;;;;;;;3.47;2.05;;;;;;;8.50;100.00;100949.25;5169055;28;20038;-77
2022/09/23 06:05:30;;;;;;;3.78;1.90;;;;;;;8.48;100.00;100953.63;5168706;28;20353;-76
2022/09/23 06:08:01;;;;;;;3.25;1.80;;;;;;;8.66;100.00;100953.25;5171967;28;20042;-78
2022/09/23 06:10:38;;;;;;;3.45;1.70;;;;;;;8.68;100.00;100956.66;5169536;28;20415;-78
2022/09/23 06:13:09;;;;;;;4.35;2.08;;;;;;;8.74;100.00;100951.31;5166231;28;20459;-77
2022/09/23 06:15:39;;;;;;;4.80;1.90;;;;;;;8.94;100.00;100954.34;5165166;28;20050;-78
2022/09/23 06:18:11;;;;;;;3.72;2.03;;;;;;;8.89;100.00;100953.56;5165527;28;20026;-77
2022/09/23 06:20:41;;;;;;;4.57;1.80;;;;;;;9.11;100.00;100949.59;5159102;28;20038;-77
2022/09/23 06:23:12;;;;;;;4.53;1.90;;;;;;;9.38;100.00;100949.78;5171143;28;20030;-77
2022/09/23 06:25:42;;;;;;;4.03;1.73;;;;;;;9.48;100.00;100947.81;5172849;28;20156;-76
2022/09/23 06:28:13;;;;;;;3.60;1.80;;;;;;;9.49;100.00;100950.34;5167674;28;20026;-77
2022/09/23 06:30:43;;;;;;;2.75;1.60;;;;;;;9.66;100.00;100942.94;5169023;28;20275;-77
2022/09/23 06:33:13;;;;;;;3.28;1.73;;;;;;;9.75;100.00;100942.72;5171573;28;20034;-77
2022/09/23 06:35:44;;;;;;;4.10;1.83;;;;;;;10.05;100.00;100930.63;5173673;28;20384;-76
2022/09/23 06:38:14;;;;;;;3.17;1.63;;;;;;;10.21;100.00;100938.00;5170720;28;20122;-76
2022/09/23 06:40:49;;;;;;;3.17;1.60;;;;;;;10.51;100.00;100941.50;5171711;28;20033;-77
2022/09/23 06:43:21;;;;;;;2.47;1.60;;;;;;;10.68;99.81;100937.44;5171625;28;20648;-77
2022/09/23 06:48:27;;;;;;;3.47;1.65;;;;;;;11.00;94.05;100939.09;5195676;28;20037;-74
2022/09/23 06:51:01;;;;;;;2.72;1.38;;;;;;;10.91;95.09;100945.47;5199576;28;20104;-74
2022/09/23 06:53:32;;;;;;;4.15;1.33;;;;;;;11.11;92.86;100936.06;5200978;28;20031;-75
2022/09/23 06:56:05;;;;;;;2.67;1.50;;;;;;;11.15;94.79;100942.06;5200388;28;20730;-75
2022/09/23 06:58:36;;;;;;;2.60;1.42;;;;;;;11.43;94.35;100938.50;5184373;28;20491;-75
2022/09/23 07:01:10;;;;;;;3.63;1.42;;;;;;;11.48;94.60;100936.56;5191763;28;20477;-76
2022/09/23 07:03:42;;;;;;;3.30;1.60;;;;;;;11.46;95.23;100942.78;5189194;28;20026;-75
2022/09/23 07:06:12;;;;;;;3.08;1.40;;;;;;;11.54;96.11;100941.63;5189691;28;20029;-76
2022/09/23 07:08:45;;;;;;;4.35;1.45;;;;;;;11.67;94.94;100935.09;5181465;28;20036;-75
2022/09/23 07:11:18;;;;;;;2.22;1.30;;;;;;;12.07;93.20;100934.53;5189346;28;20542;-75
2022/09/23 07:13:48;;;;;;;3.92;1.35;;;;;;;12.66;89.22;100928.78;5190323;28;20021;-75
2022/09/23 07:16:19;;;;;;;2.80;1.17;;;;;;;13.98;83.14;100928.56;5189443;28;20045;-75
2022/09/23 07:18:52;;;;;;;3.85;1.35;;;;;;;15.10;80.29;100921.53;5184252;28;20041;-76
2022/09/23 07:21:23;;;;;;;4.45;1.10;;;;;;;15.47;76.38;100921.44;5183191;28;20033;-73
2022/09/23 07:23:54;;;;;;;2.60;1.45;;;;;;;14.48;76.87;100924.56;5190251;28;20080;-73
2022/09/23 07:26:24;;;;;;;2.67;1.20;;;;;;;14.04;80.97;100925.66;5188719;28;20427;-73
2022/09/23 07:28:56;;;;;;;2.45;0.90;;;;;;;14.75;78.89;100923.28;5189461;28;20087;-76
2022/09/23 07:31:26;;;;;;;2.25;1.30;;;;;;;16.56;73.30;100919.22;5187690;28;20036;-73
2022/09/23 07:33:57;;;;;;;2.43;1.10;;;;;;;16.42;73.60;100917.31;5190244;28;20416;-73
2022/09/23 07:36:31;;;;;;;3.97;0.80;;;;;;;15.85;73.79;100925.63;5181386;28;20283;-73
2022/09/23 07:39:02;;;;;;;1.55;1.00;;;;;;;16.81;69.33;100917.78;5184986;28;20041;-73
2022/09/23 07:41:33;;;;;;;1.52;0.90;;;;;;;17.11;69.64;100918.72;5183610;28;20476;-72
2022/09/23 07:44:05;;;;;;;2.33;1.08;;;;;;;17.33;68.79;100908.63;5183365;28;20042;-73
2022/09/23 07:46:35;;;;;;;3.08;1.00;;;;;;;17.00;69.72;100914.00;5190284;28;20025;-73
2022/09/23 07:49:06;;;;;;;3.67;1.20;;;;;;;16.44;70.56;100906.69;5184492;28;20026;-74
2022/09/23 07:51:38;;;;;;;2.70;0.90;;;;;;;15.51;74.86;100923.00;5184438;28;20376;-73
2022/09/23 07:54:12;;;;;;;3.28;1.30;;;;;;;15.13;77.58;100929.28;5188257;28;20029;-73
2022/09/23 07:56:43;;;;;;;3.92;1.20;;;;;;;16.07;74.08;100913.03;5189929;28;20526;-73
2022/09/23 07:59:17;;;;;;;2.90;1.05;;;;;;;16.92;70.60;100910.97;5188631;28;20073;-73
2022/09/23 08:01:51;;;;;;;2.60;1.00;;;;;;;15.80;74.84;100918.88;5189727;28;20029;-73
2022/09/23 08:04:23;;;;;;;2.65;1.30;;;;;;;15.48;76.71;100915.25;5189538;28;20029;-74
2022/09/23 08:06:59;;;;;;;2.75;1.20;;;;;;;15.74;76.83;100912.13;5184723;28;20044;-73
2022/09/23 08:09:33;;;;;;;1.65;0.88;;;;;;;15.69;77.11;100921.25;5183931;28;20357;-73
2022/09/23 08:12:04;;;;;;;3.90;1.27;;;;;;;16.14;74.60;100905.66;5187456;28;20030;-73
2022/09/23 08:14:34;;;;;;;4.45;1.02;;;;;;;17.49;72.27;100902.38;5183049;28;20040;-73
2022/09/23 08:17:04;;;;;;;2.92;1.23;;;;;;;18.17;69.87;100895.59;5190949;28;20026;-73
2022/09/23 08:19:35;;;;;;;3.03;1.20;;;;;;;18.81;68.48;100905.59;5180431;28;20101;-73
2022/09/23 08:22:05;;;;;;;3.40;1.30;;;;;;;19.39;66.03;100898.22;5183906;28;20506;-73
2022/09/23 08:24:35;;;;;;;2.33;1.20;;;;;;;19.37;66.91;100904.56;5190558;28;20358;-73
2022/09/23 08:27:06;;;;;;;2.07;0.80;;;;;;;20.35;63.22;100893.34;5186958;28;20283;-73
2022/09/23 08:29:36;;;;;;;1.17;0.80;;;;;;;20.84;59.85;100889.72;5190261;28;20427;-73
2022/09/23 08:32:06;;;;;;;3.67;1.00;;;;;;;19.92;62.27;100895.44;5187561;28;20530;-73
2022/09/23 08:34:36;;;;;;;1.90;0.85;;;;;;;20.79;61.50;100894.50;5190577;28;20380;-73
2022/09/23 08:37:10;;;;;;;2.30;0.83;;;;;;;21.76;60.13;100875.69;5168683;28;20486;-74
2022/09/23 08:39:40;;;;;;;1.70;0.80;;;;;;;21.07;59.71;100886.25;5185273;28;20626;-73
2022/09/23 08:42:22;;;;;;;1.60;0.90;;;;;;;21.12;59.16;100882.31;5192148;28;20195;-73
2022/09/23 08:44:58;;;;;;;2.40;1.00;;;;;;;20.44;61.70;100880.25;5174155;28;20308;-73
2022/09/23 08:47:31;;;;;;;;;;;;;;;19.88;63.23;100893.97;5193936;28;20017;-73
2022/09/23 08:50:13;;;;;;;2.92;1.00;;;;;;;19.86;62.46;100892.34;5183805;28;20394;-73
2022/09/23 08:52:55;;;;;;;2.95;1.10;;;;;;;20.49;62.13;100878.09;5190908;28;20033;-74
2022/09/23 08:55:34;;;;;;;5.80;1.02;;;;;;;20.31;63.05;100876.75;5176470;28;20224;-74
2022/09/23 08:58:35;;;;;;;3.80;0.95;;;;;;;21.10;59.69;100875.41;5186554;28;20095;-73
2022/09/23 09:01:38;;;;;;;1.92;0.88;;;;;;;21.03;61.43;100868.84;5187243;28;20101;-74
2022/09/23 09:04:21;;;;;;;2.85;1.10;;;;;;;22.13;59.09;100870.06;5183408;28;20121;-73
2022/09/23 09:07:07;;;;;;;1.27;0.77;;;;;;;21.17;62.24;100869.53;5188088;28;20102;-73
2022/09/23 09:09:56;;;;;;;4.25;1.10;;;;;;;21.15;60.83;100871.44;5190429;28;20030;-74
2022/09/23 09:12:48;;;;;;;3.30;1.00;;;;;;;20.91;62.62;100864.44;5191385;28;20068;-73
2022/09/23 09:15:26;;;;;;;2.63;1.00;;;;;;;20.23;63.38;100871.16;5190255;28;20076;-73
2022/09/23 09:18:17;;;;;;;2.65;1.10;;;;;;;19.52;65.63;100877.91;5190947;28;20451;-73
2022/09/23 09:20:58;;;;;;;3.58;0.90;;;;;;;18.58;68.09;100880.66;5182455;28;20456;-73
2022/09/23 09:23:36;;;;;;;3.63;1.20;;;;;;;18.57;68.08;100882.47;5193446;28;20043;-73
2022/09/23 09:26:12;;;;;;;3.30;1.20;;;;;;;18.38;69.58;100884.56;5186175;28;20262;-73
2022/09/23 09:28:51;;;;;;;3.38;1.30;;;;;;;18.10;70.87;100878.38;5192704;28;20033;-73
2022/09/23 09:31:36;;;;;;;4.03;1.00;;;;;;;18.20;71.77;100874.25;5192120;28;20026;-73
2022/09/23 09:34:31;;;;;;;2.60;1.00;;;;;;;18.55;70.37;100867.63;5186707;28;20044;-73
2022/09/23 09:37:19;;;;;;;2.35;1.25;;;;;;;18.62;70.84;100860.97;5186483;28;20080;-73
2022/09/23 09:39:49;;;;;;;1.40;0.90;;;;;;;19.02;70.48;100866.25;5187131;28;20021;-73
2022/09/23 09:42:29;;;;;;;1.33;0.88;;;;;;;18.93;68.49;100861.56;5192033;28;20494;-73
2022/09/23 09:45:03;;;;;;;2.20;1.08;;;;;;;18.84;67.16;100867.44;5189750;28;20083;-73
2022/09/23 09:47:45;;;;;;;2.80;1.05;;;;;;;19.17;68.84;100858.19;5169806;28;20018;-73
2022/09/23 09:50:37;;;;;;;1.45;0.80;;;;;;;19.22;67.21;100857.88;5181577;28;20121;-73
2022/09/23 09:53:13;;;;;;;1.60;0.98;;;;;;;18.86;68.94;100855.81;5186548;28;20562;-73
2022/09/23 09:55:45;;;;;;;2.78;0.90;;;;;;;19.20;67.60;100851.81;5189707;28;20427;-73
2022/09/23 09:58:15;;;;;;;2.30;1.00;;;;;;;18.87;66.65;100852.22;5191434;28;20032;-72
2022/09/23 10:00:49;;;;;;;1.80;0.90;;;;;;;19.01;67.57;100844.22;5190948;28;20021;-73
2022/09/23 10:03:30;;;;;;;3.28;0.88;;;;;;;18.70;69.55;100848.94;5190374;28;20045;-73
2022/09/23 10:06:13;;;;;;;1.88;1.00;;;;;;;18.86;67.15;100847.88;5192502;28;20151;-73
2022/09/23 10:09:14;;;;;;;1.83;0.90;;;;;;;18.92;66.10;100847.47;5187348;28;20018;-75
2022/09/23 10:12:14;;;;;;;2.80;0.90;;;;;;;18.85;66.27;100845.31;5187588;28;20495;-73
2022/09/23 10:14:50;;;;;;;2.03;0.88;;;;;;;19.09;67.74;100833.94;5186423;28;20430;-73
2022/09/23 10:17:31;;;;;;;2.67;1.13;;;;;;;19.09;68.21;100836.59;5181844;28;20601;-73
2022/09/23 10:20:07;;;;;;;1.75;1.00;;;;;;;19.04;67.84;100832.56;5182602;28;20025;-73
2022/09/23 10:22:41;;;;;;;1.67;1.00;;;;;;;18.82;69.74;100833.13;5188796;28;20025;-72
2022/09/23 10:25:19;;;;;;;1.63;0.80;;;;;;;18.94;67.25;100832.31;5191892;28;20048;-73
2022/09/23 10:27:49;;;;;;;4.10;0.90;;;;;;;18.88;69.24;100835.38;5190267;28;20109;-73
2022/09/23 10:30:25;;;;;;;2.53;1.10;;;;;;;18.64;69.37;100828.16;5190351;28;20108;-71
2022/09/23 10:32:56;;;;;;;3.00;0.90;;;;;;;19.03;70.53;100834.38;5192199;28;20031;-73
2022/09/23 10:35:27;;;;;;;2.90;0.88;;;;;;;18.89;70.20;100829.13;5189821;28;20033;-73
2022/09/23 10:38:00;;;;;;;1.52;0.90;;;;;;;18.91;68.14;100827.22;5191683;28;20041;-73
2022/09/23 10:46:37;;;;;;;2.58;0.82;;;;;;;19.10;65.58;100819.75;5181422;28;20040;-73
2022/09/23 10:49:42;;;;;;;1.77;1.02;;;;;;;19.12;65.01;100809.91;5177923;28;20684;-73
2022/09/23 10:52:47;;;;;;;3.22;1.10;;;;;;;19.22;63.04;100811.03;5183508;28;20045;-72
2022/09/23 10:55:45;;;;;;;4.20;1.05;;;;;;;19.12;63.98;100801.94;5187846;28;20483;-73
2022/09/23 10:58:42;;;;;;;1.48;0.90;;;;;;;19.12;64.86;100796.66;5186898;28;20034;-75
2022/09/23 11:01:34;;;;;;;4.35;1.13;;;;;;;19.19;64.50;100803.28;5186787;28;20061;-73
2022/09/23 11:04:31;;;;;;;1.98;0.90;;;;;;;19.13;63.98;100801.00;5184209;28;20030;-73
2022/09/23 11:07:23;;;;;;;1.52;0.90;;;;;;;19.42;66.42;100797.25;5188592;28;20038;-73
2022/09/23 11:10:24;;;;;;;1.42;0.77;;;;;;;19.19;63.59;100794.47;5188944;28;20037;-73
2022/09/23 11:13:15;;;;;;;1.45;0.90;;;;;;;19.25;64.01;100789.59;5189644;28;20032;-73
2022/09/23 11:15:51;;;;;;;1.77;0.98;;;;;;;19.18;60.63;100787.47;5187090;28;20400;-72
2022/09/23 11:18:50;;;;;;;2.80;0.90;;;;;;;19.08;64.83;100783.72;5185773;28;20045;-73
2022/09/23 11:21:55;;;;;;;1.10;0.75;;;;;;;18.67;66.17;100782.13;5181870;28;20395;-73
2022/09/23 11:24:48;;;;;;;4.60;1.17;;;;;;;18.81;67.02;100775.81;5189793;28;20040;-73
2022/09/23 11:27:40;;;;;;;2.10;1.08;;;;;;;19.12;64.96;100772.78;5187329;28;20403;-73
2022/09/23 11:30:14;;;;;;;1.75;0.90;;;;;;;19.10;62.94;100764.09;5185616;28;20087;-73
2022/09/23 11:32:44;;;;;;;2.28;1.08;;;;;;;19.08;61.95;100763.38;5188769;28;20033;-73
2022/09/23 11:35:21;;;;;;;2.80;0.90;;;;;;;19.25;61.22;100754.31;5189603;28;20041;-73
2022/09/23 11:38:17;;;;;;;1.52;0.80;;;;;;;19.04;59.84;100753.06;5189255;28;20033;-73
2022/09/23 11:40:53;;;;;;;1.10;0.70;;;;;;;19.06;61.33;100751.16;5169921;28;20530;-73
2022/09/23 11:43:28;;;;;;;1.90;0.90;;;;;;;19.13;62.18;100752.47;5188907;28;20121;-73
2022/09/23 11:46:29;;;;;;;1.20;0.70;;;;;;;18.98;61.92;100753.50;5190700;28;20033;-73
2022/09/23 11:49:09;;;;;;;1.80;0.77;;;;;;;18.96;59.35;100742.16;5183762;28;20033;-73
2022/09/23 11:51:50;;;;;;;2.03;0.95;;;;;;;18.81;61.32;100741.38;5187463;28;20077;-73
2022/09/23 11:54:39;;;;;;;2.53;1.00;;;;;;;18.84;61.27;100735.88;5171878;28;20510;-73
2022/09/23 11:57:20;;;;;;;2.60;0.60;;;;;;;18.90;61.54;100735.47;5184386;28;20048;-73
2022/09/23 11:59:59;;;;;;;1.10;0.77;;;;;;;18.94;63.87;100731.66;5184504;28;20160;-73
2022/09/23 12:02:50;;;;;;;1.33;0.77;;;;;;;19.03;61.40;100731.03;5186792;28;20090;-73
2022/09/23 12:05:23;;;;;;;1.90;0.80;;;;;;;19.13;61.31;100725.97;5167526;28;20022;-73
2022/09/23 12:08:05;;;;;;;2.15;0.85;;;;;;;19.10;59.55;100729.66;5188061;28;20073;-73
2022/09/23 12:11:08;;;;;;;2.80;1.02;;;;;;;18.89;60.43;100728.47;5183293;28;20277;-73
2022/09/23 12:13:56;;;;;;;1.58;0.70;;;;;;;18.91;61.87;100721.25;5174137;28;20088;-73
2022/09/23 12:16:44;;;;;;;1.88;0.75;;;;;;;18.69;61.18;100719.31;5193613;28;20104;-73
2022/09/23 12:19:46;;;;;;;3.17;0.70;;;;;;;18.61;62.32;100724.25;5185855;28;20411;-73
2022/09/23 12:22:25;;;;;;;2.00;0.65;;;;;;;18.65;60.94;100718.66;5187335;28;20537;-73
2022/09/23 12:25:12;;;;;;;2.03;0.80;;;;;;;18.52;61.28;100707.16;5191948;28;20018;-73